Little Lake, Michigan
Current Conditions -  °F | °C
As of 3:36 AM on Friday 19 Dec 2014 (Local Time) from KSAW Reporting Station
Overcast Overcast  
Wind Chill: 24°   Ceiling: 1600
Heat Index: 24°   Visibility: 10mi
Dew Point: 20°   Wind: 3mph
Humidity: 84%   Direction: 340°NNW
Pressure: 30.23"   Gusts: NA
Location:  46.29°N, 87.34°W
Report Text: KSAW 190836Z AUTO 34003KT 10SM OVC016 M04/M06 A3023 RMK AO2 T10421065
Loading
Personal Weather Stations






























Interactive Weather Map New forecast layout! Learn more

10-Day Weather Forecast

Advertisements
Track Severe Weather on mobile